Time;durP1;ratioP1;P1;durP2;ratioP2;P2;SDS_P1;SDS_P2;PMS_P1;PMS_P2;Temp;Humidity;BMP_temperature;BMP_pressure;BME280_temperature;BME280_humidity;BME280_pressure;Samples;Min_cycle;Max_cycle;Signal;HPM_P1;HPM_P2
2022/06/05 00:00:10;;;;;;;6.40;5.90;;;;;;;21.49;75.81;95713.34;4961168;28;20247;-85
2022/06/05 00:02:53;;;;;;;6.50;6.00;;;;;;;21.40;76.45;95712.16;4974445;28;20262;-85
2022/06/05 00:05:26;;;;;;;6.93;6.32;;;;;;;21.38;76.80;95706.38;4963438;28;20199;-85
2022/06/05 00:08:03;;;;;;;6.95;6.28;;;;;;;21.39;76.65;95700.09;4974770;28;20208;-85
2022/06/05 00:10:36;;;;;;;6.65;6.00;;;;;;;21.29;77.26;95702.59;4977403;28;20318;-85
2022/06/05 00:13:13;;;;;;;6.00;5.50;;;;;;;21.36;76.91;95690.09;4968114;28;20200;-85
2022/06/05 00:15:41;;;;;;;6.93;6.32;;;;;;;21.40;76.80;95696.44;4972473;28;20723;-85
2022/06/05 00:18:07;;;;;;;6.85;6.25;;;;;;;21.38;76.53;95677.53;4967221;28;20259;-85
2022/06/05 00:20:34;;;;;;;6.30;5.63;;;;;;;21.38;76.84;95680.16;4963665;28;20236;-85
2022/06/05 00:23:00;;;;;;;6.40;5.90;;;;;;;21.39;76.62;95673.91;4977798;28;20192;-85
2022/06/05 00:25:38;;;;;;;6.22;5.72;;;;;;;21.36;76.91;95671.75;4972933;28;20196;-85
2022/06/05 00:28:14;;;;;;;6.43;5.82;;;;;;;21.36;77.12;95679.63;4961901;28;20212;-84
2022/06/05 00:30:50;;;;;;;6.75;5.80;;;;;;;21.41;76.74;95671.81;4972313;28;20258;-85
2022/06/05 00:33:21;;;;;;;6.40;5.90;;;;;;;21.40;76.58;95672.84;4977337;28;20216;-85
2022/06/05 00:35:53;;;;;;;6.38;5.88;;;;;;;21.38;77.01;95672.31;4972991;28;20224;-84
2022/06/05 00:38:29;;;;;;;6.18;5.57;;;;;;;21.31;77.13;95675.13;4977183;28;20200;-85
2022/06/05 00:41:17;;;;;;;6.75;6.10;;;;;;;21.35;76.91;95678.06;4965799;28;20236;-85
2022/06/05 00:43:45;;;;;;;6.05;5.45;;;;;;;21.30;77.38;95677.97;4977395;28;20267;-85
2022/06/05 00:46:12;;;;;;;6.35;5.85;;;;;;;21.23;76.93;95685.19;4973981;28;20603;-85
2022/06/05 00:48:39;;;;;;;6.03;5.63;;;;;;;21.23;77.14;95685.19;4969924;28;20205;-85
2022/06/05 00:51:05;;;;;;;5.88;5.47;;;;;;;21.21;77.10;95676.78;4975373;28;20224;-85
2022/06/05 00:53:32;;;;;;;6.00;5.35;;;;;;;21.14;77.00;95684.81;4957676;29;20240;-86
2022/06/05 00:55:58;;;;;;;6.00;5.50;;;;;;;21.09;77.46;95686.53;4972225;28;20232;-85
2022/06/05 00:58:25;;;;;;;6.13;5.60;;;;;;;21.03;77.89;95686.47;4973150;28;20197;-84
2022/06/05 01:00:53;;;;;;;6.10;5.57;;;;;;;21.07;77.83;95686.78;4973438;28;20236;-84
2022/06/05 01:03:23;;;;;;;5.65;5.25;;;;;;;21.13;77.38;95680.59;4973592;28;20196;-85
2022/06/05 01:05:51;;;;;;;6.47;5.85;;;;;;;21.19;77.15;95676.19;4971706;28;20200;-85
2022/06/05 01:08:17;;;;;;;5.38;4.97;;;;;;;21.25;77.01;95668.22;4976685;28;20200;-84
2022/06/05 01:10:52;;;;;;;5.90;5.35;;;;;;;21.15;76.93;95669.88;4979419;28;20595;-85
2022/06/05 01:13:32;;;;;;;5.70;5.20;;;;;;;21.17;76.91;95673.03;4977933;28;20231;-84
2022/06/05 01:16:09;;;;;;;5.53;5.03;;;;;;;21.18;77.31;95672.00;4977721;28;20220;-85
2022/06/05 01:18:42;;;;;;;6.28;5.63;;;;;;;21.15;76.80;95659.41;4972599;28;20204;-85
2022/06/05 01:21:32;;;;;;;6.00;5.40;;;;;;;21.10;76.84;95656.72;4965241;28;20297;-85
2022/06/05 01:24:14;;;;;;;6.10;5.50;;;;;;;21.11;77.22;95653.06;4970963;28;20648;-85
2022/06/05 01:26:49;;;;;;;7.32;5.63;;;;;;;21.12;76.77;95654.66;4977878;28;20655;-85
2022/06/05 01:29:19;;;;;;;5.78;5.38;;;;;;;21.08;76.97;95650.91;4971607;28;20226;-85
2022/06/05 01:31:54;;;;;;;6.13;5.63;;;;;;;21.07;77.45;95644.88;4979759;28;20220;-85
2022/06/05 01:34:27;;;;;;;5.80;5.40;;;;;;;21.09;77.07;95637.59;4970028;28;20200;-84
2022/06/05 01:36:58;;;;;;;5.80;5.32;;;;;;;21.13;76.63;95632.66;4970507;28;20196;-85
2022/06/05 01:39:30;;;;;;;6.13;5.63;;;;;;;20.99;77.70;95637.44;4972408;28;20540;-85
2022/06/05 01:42:03;;;;;;;5.60;5.10;;;;;;;21.00;77.74;95636.41;4979457;28;20228;-85
2022/06/05 01:44:34;;;;;;;5.72;5.32;;;;;;;21.00;77.81;95626.72;4970692;28;20200;-84
2022/06/05 01:47:06;;;;;;;5.43;5.03;;;;;;;20.91;78.15;95630.00;4979570;28;20200;-85
2022/06/05 01:49:39;;;;;;;6.07;5.53;;;;;;;21.02;77.57;95623.88;4973549;28;20220;-86
2022/06/05 01:52:14;;;;;;;6.20;5.57;;;;;;;20.99;77.63;95627.75;4956696;28;20236;-85
2022/06/05 01:54:43;;;;;;;6.40;5.90;;;;;;;20.81;79.15;95635.06;4967500;28;20223;-85
2022/06/05 01:57:15;;;;;;;5.68;5.10;;;;;;;20.80;79.03;95623.81;4980539;28;20196;-85
2022/06/05 01:59:46;;;;;;;6.72;6.22;;;;;;;20.83;78.83;95619.91;4969041;28;20786;-85
2022/06/05 02:02:17;;;;;;;6.55;5.95;;;;;;;20.70;79.71;95621.06;4979161;28;20553;-85
2022/06/05 02:04:48;;;;;;;6.22;5.70;;;;;;;20.72;79.35;95615.56;4964558;28;20209;-85
2022/06/05 02:07:18;;;;;;;6.18;5.57;;;;;;;20.61;79.99;95619.84;4981349;28;20211;-85
2022/06/05 02:09:49;;;;;;;6.20;5.70;;;;;;;20.54;80.11;95611.38;4973525;28;20219;-85
2022/06/05 02:12:17;;;;;;;5.40;5.00;;;;;;;20.58;79.96;95608.06;4982222;28;20239;-84
2022/06/05 02:14:43;;;;;;;7.70;5.57;;;;;;;20.53;79.90;95605.34;4971767;28;20236;-85
2022/06/05 02:17:11;;;;;;;5.78;5.28;;;;;;;20.49;80.09;95606.06;4981401;28;20200;-85
2022/06/05 02:19:38;;;;;;;5.60;5.18;;;;;;;20.48;80.23;95607.88;4973634;28;20223;-85
2022/06/05 02:22:12;;;;;;;6.00;5.50;;;;;;;20.44;80.33;95600.75;4965937;28;20263;-85
2022/06/05 02:24:38;;;;;;;6.35;5.75;;;;;;;20.41;80.29;95594.16;4972540;28;20200;-85
2022/06/05 02:27:07;;;;;;;6.20;5.60;;;;;;;20.43;80.31;95593.94;4980708;28;20254;-85
2022/06/05 02:29:36;;;;;;;5.65;5.25;;;;;;;20.48;79.83;95586.97;4974397;28;20243;-85
2022/06/05 02:32:18;;;;;;;6.13;5.03;;;;;;;20.45;79.77;95587.44;4980493;28;20737;-85
2022/06/05 02:34:54;;;;;;;5.70;5.22;;;;;;;20.39;80.29;95582.38;4973746;28;20204;-85
2022/06/05 02:37:38;;;;;;;5.97;5.47;;;;;;;20.39;80.04;95577.94;4981219;28;20227;-85
2022/06/05 02:40:12;;;;;;;6.75;5.45;;;;;;;20.42;79.76;95569.59;4974770;28;20219;-84
2022/06/05 02:42:45;;;;;;;5.15;4.65;;;;;;;20.43;79.72;95559.94;4981216;28;20282;-85
2022/06/05 02:45:21;;;;;;;5.40;4.97;;;;;;;20.42;79.98;95568.81;4973871;28;20583;-85
2022/06/05 02:47:54;;;;;;;5.50;5.00;;;;;;;20.46;79.91;95564.69;4977745;28;20267;-85
2022/06/05 02:50:26;;;;;;;7.05;5.03;;;;;;;20.51;79.17;95557.72;4972304;28;20236;-86
2022/06/05 02:52:59;;;;;;;5.32;4.88;;;;;;;20.57;79.17;95550.75;4963562;28;20205;-85
2022/06/05 02:55:26;;;;;;;5.07;4.57;;;;;;;20.60;78.79;95545.00;4973455;28;20239;-85
2022/06/05 02:57:52;;;;;;;5.30;4.78;;;;;;;20.56;78.83;95544.72;4976118;28;20201;-85
2022/06/05 03:00:23;;;;;;;4.95;4.55;;;;;;;20.56;78.48;95536.88;4979183;28;20216;-85
2022/06/05 03:05:34;;;;;;;5.22;4.80;;;;;;;20.32;79.10;95528.38;4972111;28;20711;-85
2022/06/05 03:08:01;;;;;;;5.25;4.75;;;;;;;20.22;80.02;95522.19;4977646;28;20281;-85
2022/06/05 03:10:28;;;;;;;5.22;4.72;;;;;;;20.11;80.66;95518.63;4980457;28;20291;-86
2022/06/05 03:12:54;;;;;;;5.03;4.63;;;;;;;20.15;80.29;95519.75;4977804;28;20265;-85
2022/06/05 03:15:22;;;;;;;5.05;4.55;;;;;;;20.20;79.95;95514.59;4972771;28;20227;-84
2022/06/05 03:17:49;;;;;;;5.95;4.80;;;;;;;20.19;80.10;95512.22;4967604;28;20240;-85
2022/06/05 03:20:17;;;;;;;5.10;4.60;;;;;;;20.14;80.01;95512.94;4979478;28;20639;-85
2022/06/05 03:22:44;;;;;;;5.40;4.95;;;;;;;20.15;79.92;95511.91;4975780;28;20219;-84
2022/06/05 03:25:15;;;;;;;5.30;4.90;;;;;;;20.17;79.90;95502.00;4974560;28;20212;-85
2022/06/05 03:27:42;;;;;;;5.22;4.60;;;;;;;20.15;79.99;95495.41;4976691;28;20211;-85
2022/06/05 03:30:09;;;;;;;5.47;4.97;;;;;;;20.14;79.95;95499.06;4973708;28;20248;-85
2022/06/05 03:32:37;;;;;;;6.13;4.78;;;;;;;20.21;79.93;95495.25;4975947;28;20266;-85
2022/06/05 03:35:05;;;;;;;4.97;4.45;;;;;;;20.32;79.15;95494.38;4942537;29;20638;-85
2022/06/05 03:37:32;;;;;;;5.22;4.72;;;;;;;20.30;79.24;95493.03;4975345;28;20196;-85
2022/06/05 03:39:58;;;;;;;5.07;4.40;;;;;;;20.35;78.99;95496.53;4976535;28;20701;-85
2022/06/05 03:42:24;;;;;;;4.85;4.40;;;;;;;20.34;78.83;95488.91;4973128;28;20224;-85
2022/06/05 03:44:51;;;;;;;6.55;4.95;;;;;;;20.31;78.76;95479.72;4977133;28;20648;-85
2022/06/05 03:47:18;;;;;;;5.90;4.50;;;;;;;20.27;79.01;95477.81;4966734;28;20617;-85
2022/06/05 03:49:46;;;;;;;5.45;4.60;;;;;;;20.25;79.25;95474.63;4976676;28;20239;-85
2022/06/05 03:52:12;;;;;;;4.65;4.25;;;;;;;20.20;79.37;95472.78;4965948;28;20224;-85
2022/06/05 03:54:39;;;;;;;5.10;4.70;;;;;;;20.11;79.54;95474.19;4980870;28;20196;-85
2022/06/05 03:57:07;;;;;;;5.43;4.60;;;;;;;20.03;79.84;95469.34;4972493;28;20224;-84
2022/06/05 03:59:34;;;;;;;7.40;4.50;;;;;;;19.99;79.77;95465.66;4969594;28;20224;-85
2022/06/05 04:02:02;;;;;;;5.75;4.25;;;;;;;19.97;79.85;95462.47;4965377;28;20228;-85
2022/06/05 04:04:28;;;;;;;4.35;4.03;;;;;;;19.99;80.08;95463.03;4970388;28;20263;-85
2022/06/05 04:06:56;;;;;;;5.43;3.90;;;;;;;20.13;79.35;95468.72;4971751;28;20215;-85
2022/06/05 04:09:22;;;;;;;4.70;4.28;;;;;;;20.16;78.62;95471.66;4978583;28;20220;-84
2022/06/05 04:11:49;;;;;;;4.80;4.40;;;;;;;20.21;78.48;95469.09;4972801;28;20518;-84
2022/06/05 04:14:15;;;;;;;4.55;4.00;;;;;;;20.22;78.54;95472.50;4973325;28;20207;-84
2022/06/05 04:16:42;;;;;;;4.45;4.05;;;;;;;20.24;78.22;95480.91;4974266;28;20227;-85
2022/06/05 04:19:09;;;;;;;4.75;4.20;;;;;;;20.35;77.85;95467.75;4974760;28;20247;-85
2022/06/05 04:21:38;;;;;;;4.63;4.22;;;;;;;20.44;77.42;95459.50;4973846;28;20256;-85
2022/06/05 04:24:06;;;;;;;4.20;3.85;;;;;;;20.43;77.53;95453.47;4957590;28;20216;-85
2022/06/05 04:26:35;;;;;;;4.07;3.78;;;;;;;20.47;76.77;95451.97;4975302;28;20200;-84
2022/06/05 04:29:02;;;;;;;4.32;3.92;;;;;;;20.32;77.59;95451.75;4980920;28;20239;-84
2022/06/05 04:31:31;;;;;;;4.45;4.05;;;;;;;20.33;77.87;95445.47;4967085;28;20232;-84
2022/06/05 04:34:00;;;;;;;4.35;3.95;;;;;;;20.37;78.33;95444.00;4961589;28;20216;-84
2022/06/05 04:36:27;;;;;;;4.45;4.15;;;;;;;20.45;77.70;95440.97;4966163;28;20224;-85
2022/06/05 04:38:54;;;;;;;4.53;4.13;;;;;;;20.35;77.19;95443.41;4963796;28;20209;-85
2022/06/05 04:41:24;;;;;;;4.30;3.92;;;;;;;20.35;77.43;95443.41;4962946;28;20620;-85
2022/06/05 04:43:51;;;;;;;4.35;3.95;;;;;;;20.40;77.96;95440.13;4983358;28;20254;-85
2022/06/05 04:46:19;;;;;;;5.45;4.25;;;;;;;20.38;77.52;95444.81;4969413;28;20208;-85
2022/06/05 04:48:45;;;;;;;5.35;4.47;;;;;;;20.32;78.33;95434.22;4971691;28;20207;-85
2022/06/05 04:51:13;;;;;;;4.50;4.10;;;;;;;20.25;78.11;95425.75;4970300;28;20229;-84
2022/06/05 04:53:40;;;;;;;4.65;4.22;;;;;;;20.25;78.01;95417.13;4969591;28;20244;-85
2022/06/05 04:56:11;;;;;;;4.78;4.13;;;;;;;20.35;77.59;95431.13;4974489;28;20312;-85
2022/06/05 04:58:39;;;;;;;5.28;4.78;;;;;;;20.41;77.66;95426.78;4967419;28;20205;-84
2022/06/05 05:01:10;;;;;;;5.03;4.53;;;;;;;20.48;77.81;95437.88;4967203;28;20240;-85
2022/06/05 05:03:37;;;;;;;4.32;3.92;;;;;;;20.54;76.93;95436.91;4974695;28;20200;-85
2022/06/05 05:06:03;;;;;;;5.55;4.15;;;;;;;20.61;76.79;95429.66;4966783;28;20199;-85
2022/06/05 05:08:30;;;;;;;4.43;4.03;;;;;;;20.69;76.85;95426.63;4974971;28;20196;-84
2022/06/05 05:10:56;;;;;;;7.03;4.20;;;;;;;20.67;76.04;95418.22;4972779;28;20239;-85
2022/06/05 05:13:22;;;;;;;4.53;4.00;;;;;;;20.69;76.43;95418.78;4972210;28;20240;-85
2022/06/05 05:15:52;;;;;;;5.05;4.30;;;;;;;20.79;76.33;95431.19;4968497;28;20228;-84
2022/06/05 05:18:18;;;;;;;4.78;3.97;;;;;;;20.84;75.68;95422.59;4968738;28;20202;-85
2022/06/05 05:20:45;;;;;;;4.30;3.90;;;;;;;20.95;75.69;95412.03;4972645;28;20232;-85
2022/06/05 05:23:11;;;;;;;4.22;3.80;;;;;;;20.94;75.09;95405.19;4971472;28;20223;-85
2022/06/05 05:25:38;;;;;;;4.30;3.90;;;;;;;20.93;74.79;95401.00;4971067;28;20957;-84
2022/06/05 05:28:06;;;;;;;4.18;3.88;;;;;;;20.83;75.33;95394.84;4986184;28;20722;-85
2022/06/05 05:30:32;;;;;;;4.82;4.30;;;;;;;20.74;75.88;95383.25;4975899;28;20259;-84
2022/06/05 05:33:00;;;;;;;4.65;3.63;;;;;;;20.76;76.26;95379.34;4983430;28;20201;-85
2022/06/05 05:35:27;;;;;;;4.80;4.20;;;;;;;20.83;76.09;95379.16;4970251;28;20200;-84
2022/06/05 05:37:53;;;;;;;4.50;4.10;;;;;;;20.83;76.24;95372.09;4977445;28;20227;-85
2022/06/05 05:43:06;;;;;;;6.65;3.97;;;;;;;21.04;75.91;95367.84;4976907;28;20501;-85
2022/06/05 05:45:34;;;;;;;5.50;3.85;;;;;;;21.07;76.55;95379.66;4984882;28;20247;-84
2022/06/05 05:48:04;;;;;;;5.57;4.00;;;;;;;20.98;75.87;95380.09;4982785;28;20205;-83
2022/06/05 05:50:33;;;;;;;4.65;3.70;;;;;;;20.84;75.65;95378.91;4978177;28;20235;-83
2022/06/05 05:52:59;;;;;;;3.90;3.58;;;;;;;20.84;76.63;95367.66;4980340;28;20627;-83
2022/06/05 05:55:25;;;;;;;5.75;4.10;;;;;;;20.77;76.70;95362.63;4983666;28;20266;-83
2022/06/05 05:57:52;;;;;;;4.10;3.67;;;;;;;20.74;76.42;95349.22;4988456;28;20292;-85
2022/06/05 06:00:20;;;;;;;4.55;4.05;;;;;;;20.73;77.02;95361.53;4985181;28;20223;-83
2022/06/05 06:02:47;;;;;;;4.53;4.10;;;;;;;20.89;76.57;95349.38;4996703;28;20203;-83
2022/06/05 06:05:17;;;;;;;4.07;3.67;;;;;;;20.92;76.50;95341.03;4974249;28;20632;-83
2022/06/05 06:07:44;;;;;;;4.13;3.72;;;;;;;21.00;76.35;95345.81;4973688;28;20193;-85
2022/06/05 06:10:12;;;;;;;4.20;3.80;;;;;;;21.10;75.14;95332.84;4972638;28;20696;-84
2022/06/05 06:12:38;;;;;;;5.03;3.80;;;;;;;21.12;75.71;95333.38;4968444;28;20224;-84
2022/06/05 06:15:06;;;;;;;4.68;3.80;;;;;;;21.25;74.76;95337.44;4970326;28;20208;-84
2022/06/05 06:17:32;;;;;;;4.07;3.67;;;;;;;21.35;76.06;95345.41;4966165;28;20217;-84
2022/06/05 06:19:59;;;;;;;3.95;3.55;;;;;;;21.51;74.85;95333.22;4982118;28;20228;-85
2022/06/05 06:22:27;;;;;;;5.35;3.90;;;;;;;21.59;73.82;95335.34;4982352;28;20635;-84
2022/06/05 06:24:53;;;;;;;4.38;3.50;;;;;;;21.60;73.39;95345.56;4982664;28;20263;-85
2022/06/05 06:27:19;;;;;;;4.47;4.07;;;;;;;21.57;74.06;95342.66;4982664;28;20199;-84
2022/06/05 06:29:46;;;;;;;5.15;4.03;;;;;;;21.65;73.38;95355.31;4982169;28;20285;-85
2022/06/05 06:32:12;;;;;;;4.32;3.92;;;;;;;21.72;73.09;95358.53;4982259;28;20239;-83
2022/06/05 06:34:39;;;;;;;5.65;3.80;;;;;;;21.86;72.84;95361.50;4982373;28;20200;-83
2022/06/05 06:37:05;;;;;;;6.53;4.00;;;;;;;21.91;72.27;95361.53;4981669;28;20639;-86
2022/06/05 06:39:33;;;;;;;4.45;4.05;;;;;;;21.95;71.84;95368.63;4979927;28;20224;-83
2022/06/05 06:42:00;;;;;;;4.30;3.90;;;;;;;21.88;72.12;95369.91;4980432;28;20759;-85
2022/06/05 06:44:26;;;;;;;5.07;3.70;;;;;;;21.89;72.61;95368.84;4981148;28;20679;-84
2022/06/05 06:46:53;;;;;;;5.30;4.07;;;;;;;21.91;73.11;95370.19;4981142;28;20201;-85
2022/06/05 06:49:19;;;;;;;4.90;3.90;;;;;;;21.96;71.78;95377.28;4980243;28;20228;-84
2022/06/05 06:51:46;;;;;;;4.20;3.70;;;;;;;21.96;72.08;95372.03;4973467;28;20256;-84
2022/06/05 06:54:12;;;;;;;5.45;3.75;;;;;;;21.94;72.08;95379.34;4961090;29;20204;-85
2022/06/05 06:56:40;;;;;;;5.03;3.70;;;;;;;22.01;72.48;95382.59;4961163;29;20239;-85
2022/06/05 06:59:07;;;;;;;3.95;3.65;;;;;;;22.03;72.06;95383.13;4961612;28;20307;-84
2022/06/05 07:01:34;;;;;;;4.72;3.92;;;;;;;22.06;71.74;95374.75;4960305;28;20291;-85
2022/06/05 07:04:00;;;;;;;3.92;3.63;;;;;;;22.03;72.22;95380.50;4961601;28;20221;-85
2022/06/05 07:06:27;;;;;;;5.82;3.72;;;;;;;22.14;72.34;95378.72;4970166;28;20200;-84
2022/06/05 07:08:53;;;;;;;7.70;4.00;;;;;;;22.35;71.90;95389.06;4974907;28;20262;-84
2022/06/05 07:11:20;;;;;;;4.03;3.63;;;;;;;22.55;70.97;95400.72;4973331;28;20224;-83
2022/06/05 07:13:49;;;;;;;4.30;3.63;;;;;;;22.67;70.08;95438.84;4978123;28;20200;-83
2022/06/05 07:16:16;;;;;;;4.10;3.80;;;;;;;22.77;69.85;95508.16;4974754;28;20199;-84
2022/06/05 07:18:43;;;;;;;5.43;3.88;;;;;;;22.85;69.59;95534.78;4973359;28;20231;-84
2022/06/05 07:21:11;;;;;;;4.65;4.00;;;;;;;22.96;70.41;95519.84;4974112;28;20227;-85
2022/06/05 07:23:38;;;;;;;3.90;3.60;;;;;;;23.12;70.05;95489.19;4976848;28;20515;-84
2022/06/05 07:26:08;;;;;;;6.03;3.90;;;;;;;23.24;69.35;95522.09;4975758;28;20211;-84
2022/06/05 07:28:34;;;;;;;4.82;3.70;;;;;;;23.32;69.21;95531.28;4979733;28;20212;-84
2022/06/05 07:31:06;;;;;;;5.45;3.85;;;;;;;23.42;69.60;95510.31;4976374;28;20259;-83
2022/06/05 07:33:33;;;;;;;4.25;3.85;;;;;;;23.51;67.71;95521.88;4969250;28;20208;-84
2022/06/05 07:36:03;;;;;;;5.15;3.53;;;;;;;23.58;67.59;95542.72;4977866;28;20200;-84
2022/06/05 07:38:29;;;;;;;4.30;3.90;;;;;;;23.52;68.10;95534.00;4957173;28;20222;-85
2022/06/05 07:40:56;;;;;;;4.55;3.63;;;;;;;23.57;67.63;95544.56;4958198;28;20275;-84
2022/06/05 07:43:23;;;;;;;8.48;4.25;;;;;;;23.57;68.79;95541.91;4963974;28;20205;-84
2022/06/05 07:45:49;;;;;;;4.40;4.03;;;;;;;23.56;69.06;95542.97;4969508;28;20265;-84
2022/06/05 07:48:19;;;;;;;4.57;4.18;;;;;;;23.56;67.87;95542.97;4974366;28;20201;-85
2022/06/05 07:56:14;;;;;;;4.50;4.10;;;;;;;23.35;69.45;95549.97;4971380;28;20212;-84
2022/06/05 07:58:40;;;;;;;4.68;4.28;;;;;;;23.33;70.42;95546.00;4967893;28;20197;-85
2022/06/05 08:01:07;;;;;;;4.97;4.57;;;;;;;23.25;69.54;95546.53;4967670;28;20235;-84
2022/06/05 08:03:36;;;;;;;4.93;4.53;;;;;;;23.24;70.21;95548.34;4966604;28;20240;-84
2022/06/05 08:06:03;;;;;;;5.45;4.70;;;;;;;23.29;70.02;95556.25;4958469;28;20200;-84
2022/06/05 08:08:29;;;;;;;5.13;4.55;;;;;;;23.35;69.46;95555.22;4976634;28;20208;-85
2022/06/05 08:11:03;;;;;;;4.80;4.40;;;;;;;23.29;69.96;95540.47;4970035;28;20256;-84
2022/06/05 08:13:29;;;;;;;4.95;4.47;;;;;;;23.23;70.62;95551.25;4975791;28;20200;-84
2022/06/05 08:15:56;;;;;;;5.10;4.65;;;;;;;23.24;69.84;95542.31;4978906;28;20231;-84
2022/06/05 08:18:22;;;;;;;6.55;4.55;;;;;;;23.22;69.63;95505.00;4981687;28;20230;-84
2022/06/05 08:20:50;;;;;;;5.70;5.25;;;;;;;23.24;68.84;95497.66;4980871;28;20267;-85
2022/06/05 08:23:17;;;;;;;5.05;4.57;;;;;;;23.27;70.14;95541.81;4979588;28;20204;-83
2022/06/05 08:25:44;;;;;;;7.43;5.10;;;;;;;23.54;68.71;95571.34;4981472;28;20211;-86
2022/06/05 08:28:11;;;;;;;5.30;4.90;;;;;;;23.69;68.71;95554.81;4983485;28;20212;-84
2022/06/05 08:30:38;;;;;;;5.15;4.65;;;;;;;23.66;67.50;95529.88;4987357;28;20236;-85
2022/06/05 08:33:07;;;;;;;5.57;5.18;;;;;;;23.60;67.16;95540.63;4969373;28;20227;-84
2022/06/05 08:35:33;;;;;;;5.38;4.97;;;;;;;23.57;67.83;95551.66;4971843;28;20264;-84
2022/06/05 08:43:50;;;;;;;5.63;5.00;;;;;;;23.77;67.44;95564.84;4978010;28;20338;-85
2022/06/05 08:46:23;;;;;;;6.10;5.60;;;;;;;24.05;66.33;95558.34;4980807;28;20203;-84
2022/06/05 08:48:54;;;;;;;5.82;5.18;;;;;;;23.98;66.78;95549.91;4980268;28;20243;-85
2022/06/05 08:51:38;;;;;;;6.75;5.32;;;;;;;24.10;65.90;95553.84;4973638;28;20232;-86
2022/06/05 08:54:11;;;;;;;5.57;5.10;;;;;;;24.16;66.39;95565.16;4973478;28;20200;-85
2022/06/05 08:56:42;;;;;;;5.35;4.95;;;;;;;24.21;66.41;95573.06;4983882;28;20196;-85
2022/06/05 08:59:17;;;;;;;5.72;5.30;;;;;;;24.06;65.42;95571.19;4972538;28;20693;-85
2022/06/05 09:01:50;;;;;;;5.28;4.82;;;;;;;23.92;66.56;95566.72;4983029;28;20224;-86
2022/06/05 09:04:25;;;;;;;7.38;5.43;;;;;;;23.89;66.07;95575.91;4976519;28;20256;-86
2022/06/05 09:06:55;;;;;;;5.43;5.00;;;;;;;23.79;66.82;95575.09;4969597;28;20625;-86
2022/06/05 09:09:28;;;;;;;7.47;5.55;;;;;;;23.75;67.04;95570.34;4981797;28;20222;-86
2022/06/05 09:12:00;;;;;;;6.90;5.47;;;;;;;23.69;67.59;95560.88;4973931;28;20228;-85
2022/06/05 09:14:34;;;;;;;5.65;5.25;;;;;;;23.62;67.45;95556.94;4976216;28;20207;-86
2022/06/05 09:17:06;;;;;;;6.50;5.78;;;;;;;23.56;67.19;95557.94;4967600;28;20216;-85
2022/06/05 09:19:33;;;;;;;6.22;5.68;;;;;;;23.51;68.53;95563.94;4976381;28;20224;-86
2022/06/05 09:22:05;;;;;;;12.02;6.10;;;;;;;23.37;67.85;95562.84;4978051;28;20231;-86
2022/06/05 09:24:54;;;;;;;6.22;5.55;;;;;;;23.42;68.31;95562.88;4969922;28;20224;-85
2022/06/05 09:27:28;;;;;;;5.60;5.13;;;;;;;23.32;69.12;95565.44;4968012;28;20213;-85
2022/06/05 09:30:03;;;;;;;6.07;5.47;;;;;;;23.29;68.75;95564.13;4981464;28;20227;-86
2022/06/05 09:32:52;;;;;;;5.78;5.35;;;;;;;23.21;69.03;95564.63;4966620;28;20232;-86
2022/06/05 09:35:25;;;;;;;7.88;5.90;;;;;;;23.15;69.47;95562.22;4963561;28;20236;-87
2022/06/05 09:37:57;;;;;;;5.82;5.38;;;;;;;23.23;69.33;95559.91;4972884;28;20228;-85
2022/06/05 09:40:29;;;;;;;6.63;5.85;;;;;;;23.17;69.39;95566.19;4968905;28;20294;-86
2022/06/05 09:43:42;;;;;;;5.97;5.53;;;;;;;23.19;70.89;95566.72;4977185;28;20204;-86
2022/06/05 09:46:33;;;;;;;6.18;5.68;;;;;;;23.21;70.82;95567.25;4926669;29;20278;-86
2022/06/05 09:49:08;;;;;;;6.65;5.70;;;;;;;23.23;71.03;95578.31;4972797;28;20196;-86
2022/06/05 09:51:36;;;;;;;6.07;5.68;;;;;;;23.19;71.56;95576.44;4967994;28;20609;-86
2022/06/05 09:54:08;;;;;;;6.63;6.00;;;;;;;23.21;71.35;95584.84;4973983;28;20224;-87
2022/06/05 09:59:38;;;;;;;6.85;6.35;;;;;;;23.16;70.55;95584.81;4973566;28;20227;-86
2022/06/05 10:02:07;;;;;;;6.40;5.90;;;;;;;23.20;70.64;95585.91;4948955;28;20324;-86
2022/06/05 10:04:34;;;;;;;6.68;6.07;;;;;;;23.23;70.90;95577.50;4975937;28;20207;-86
2022/06/05 10:07:08;;;;;;;7.18;6.57;;;;;;;23.30;70.18;95564.91;4974885;28;20251;-86
2022/06/05 10:09:42;;;;;;;6.85;6.35;;;;;;;23.32;69.94;95566.25;4970426;28;20228;-86
2022/06/05 10:12:22;;;;;;;7.57;6.43;;;;;;;23.28;69.98;95564.41;4956258;29;20616;-85
2022/06/05 10:14:54;;;;;;;7.10;6.50;;;;;;;23.30;70.35;95551.78;4980760;28;20232;-86
2022/06/05 10:17:38;;;;;;;7.22;6.70;;;;;;;23.20;70.41;95549.91;4976084;28;20230;-86
2022/06/05 10:20:25;;;;;;;6.88;6.28;;;;;;;23.14;71.00;95545.66;4973641;28;20215;-86
2022/06/05 10:22:58;;;;;;;7.95;7.35;;;;;;;23.04;71.50;95545.63;4976801;28;20205;-86
2022/06/05 10:25:33;;;;;;;7.68;7.07;;;;;;;23.10;70.80;95544.59;4976001;28;20200;-86
2022/06/05 10:28:06;;;;;;;6.97;6.40;;;;;;;23.18;70.92;95544.13;4977579;28;20723;-86
2022/06/05 10:30:40;;;;;;;7.03;6.53;;;;;;;23.24;72.05;95537.84;4981027;28;20236;-86
2022/06/05 10:33:17;;;;;;;7.53;6.93;;;;;;;23.29;71.91;95547.56;4969590;28;20288;-86
2022/06/05 10:35:51;;;;;;;7.93;7.22;;;;;;;23.30;72.71;95543.91;4973245;28;20200;-86
2022/06/05 10:38:38;;;;;;;7.70;7.10;;;;;;;23.29;72.28;95540.47;4971585;28;20229;-86
2022/06/05 10:41:18;;;;;;;7.45;6.95;;;;;;;23.31;72.76;95541.00;4963698;28;20274;-85
2022/06/05 10:44:03;;;;;;;7.55;6.95;;;;;;;23.37;72.70;95529.47;4972089;28;20209;-86
2022/06/05 10:46:31;;;;;;;7.55;6.95;;;;;;;23.44;72.27;95531.88;4972563;28;20200;-85
2022/06/05 10:49:09;;;;;;;7.05;6.50;;;;;;;23.48;72.38;95525.03;4967758;28;20204;-85
2022/06/05 10:51:42;;;;;;;8.10;7.45;;;;;;;23.43;71.63;95525.81;4969240;28;20224;-85
2022/06/05 10:54:28;;;;;;;7.63;7.03;;;;;;;23.38;72.16;95519.75;4959844;28;20216;-86
2022/06/05 10:57:00;;;;;;;7.68;6.95;;;;;;;23.41;72.09;95512.16;4974673;28;20204;-85
2022/06/05 10:59:39;;;;;;;7.72;7.03;;;;;;;23.44;71.68;95510.84;4972888;28;20224;-85
2022/06/05 11:02:26;;;;;;;7.50;7.00;;;;;;;23.48;71.86;95505.84;4944748;29;20653;-84
2022/06/05 11:05:01;;;;;;;7.85;7.25;;;;;;;23.54;71.51;95495.13;4974051;28;20205;-86
2022/06/05 11:07:47;;;;;;;7.40;6.90;;;;;;;23.58;71.73;95490.13;4973427;28;20203;-85
2022/06/05 11:13:39;;;;;;;8.30;7.60;;;;;;;23.65;70.83;95488.84;4953500;28;20739;-85
2022/06/05 11:16:18;;;;;;;9.32;8.43;;;;;;;23.77;70.02;95473.59;4976766;28;20215;-85
2022/06/05 11:18:52;;;;;;;8.48;7.88;;;;;;;23.75;69.61;95470.44;4966500;28;20231;-86
2022/06/05 11:21:21;;;;;;;8.60;8.00;;;;;;;24.05;69.15;95464.38;4974268;28;20532;-86
2022/06/05 11:23:53;;;;;;;8.80;7.95;;;;;;;24.23;68.99;95455.19;4973063;28;20208;-86
2022/06/05 11:26:27;;;;;;;9.07;8.38;;;;;;;24.22;67.60;95458.88;4969160;28;20199;-86
2022/06/05 11:29:09;;;;;;;10.02;9.00;;;;;;;24.30;66.76;95454.94;4970966;28;20270;-86
2022/06/05 11:31:57;;;;;;;8.77;8.18;;;;;;;24.32;67.45;95452.81;4970123;28;20224;-86
2022/06/05 11:34:36;;;;;;;10.35;9.52;;;;;;;24.10;67.00;95445.97;4965074;28;20201;-85
2022/06/05 11:37:21;;;;;;;9.82;9.13;;;;;;;23.93;67.25;95440.22;4973984;28;20214;-86
2022/06/05 11:39:57;;;;;;;10.25;9.45;;;;;;;23.82;67.83;95438.66;4971784;28;20232;-86
2022/06/05 11:42:27;;;;;;;9.98;9.18;;;;;;;23.84;68.44;95433.13;4971620;28;20220;-86
2022/06/05 11:45:01;;;;;;;10.00;9.23;;;;;;;23.74;69.45;95423.38;4972167;28;20611;-86
2022/06/05 11:47:36;;;;;;;10.07;9.27;;;;;;;23.77;69.49;95426.28;4974512;28;20215;-85
2022/06/05 11:50:11;;;;;;;10.13;9.32;;;;;;;23.75;70.64;95428.38;4979113;28;20247;-84
2022/06/05 11:52:45;;;;;;;9.98;9.00;;;;;;;23.77;69.87;95422.84;4974014;28;20192;-86
2022/06/05 11:55:25;;;;;;;9.52;8.65;;;;;;;23.84;71.22;95418.13;4974645;28;20200;-86
2022/06/05 11:58:00;;;;;;;9.75;8.95;;;;;;;23.91;70.93;95413.38;4974292;28;20283;-87
2022/06/05 12:00:34;;;;;;;9.32;8.63;;;;;;;23.94;70.00;95419.94;4977863;28;20235;-85
2022/06/05 12:03:10;;;;;;;10.68;9.75;;;;;;;23.89;69.74;95415.47;4982771;28;20667;-85
2022/06/05 12:05:55;;;;;;;9.85;9.02;;;;;;;23.84;69.04;95423.38;4980834;28;20267;-85
2022/06/05 12:08:29;;;;;;;10.52;9.77;;;;;;;23.85;69.79;95424.19;4957160;28;20203;-86
2022/06/05 12:11:03;;;;;;;10.15;9.30;;;;;;;23.87;70.43;95408.91;4966421;28;20244;-85
2022/06/05 12:13:51;;;;;;;10.65;9.75;;;;;;;23.91;70.25;95416.00;4965684;28;20251;-86